< < Back
Terminal Aerodrome Forecast


Current Version              Previous Versions:   1  2  3  4  5  6  7  8  9  

Terminal Aerodrome Forecast

431
FTUS42 KGSP 261300 AAA
TAFCLT
TAF AMD
KCLT 261302Z 2613/2712 00000KT 1SM BR SCT003 BKN250
      TEMPO 2613/2614 1/4SM FG VV001
     FM261400 24003KT P6SM FEW120 BKN250
     FM261700 24006KT P6SM SCT060
     FM270100 21004KT P6SM SCT070 BKN250=

Latest METAR

144
SAUS70 KWBC 261300 RRE
MTRCLT
METAR KCLT 261252Z 15006KT 1/4SM R18C/1000V2200FT FG VV002 22/21 A3006
RMK AO2 SLP169 T02220211


USA.gov is the U.S. government's official web portal to all federal, state and local government web resources and services.